UAL8443 KJFK-KMCO
Flight info
| Callsign | UAL8443 |
|---|---|
| Flight time | N/A |
| Altitude | 40000 |
| Route | WAVEY EMJAY Q167 ZJAAY Q97 SAWED MOXXY Q85 LPERD SNFLD3 |
| Aircraft | B772/H-SDE2E3FGHIJ5LORVWXY/LB1D1 |
Departure
| Time | 2026-05-05 00:07 |
|---|---|
| Airport | John F. Kennedy International Airport (KJFK) |
Arrival
| Time | N/A |
|---|---|
| Airport | Orlando International Airport (KMCO) |
| Time | Latitude | Longitude | Altitude | Speed | Heading |
|---|---|---|---|---|---|
| 2026-05-04 23:22 | 40.63872 | -73.78398 | 22 ft | 0 kts | 267° |
| 2026-05-04 23:53 | 40.63872 | -73.78397 | 22 ft | 1 kts | 267° |
| 2026-05-04 23:54 | 40.63873 | -73.78378 | 22 ft | 2 kts | 267° |
| 2026-05-04 23:54 | 40.63873 | -73.78359 | 22 ft | 2 kts | 267° |
| 2026-05-04 23:54 | 40.63874 | -73.78346 | 22 ft | 1 kts | 267° |
| 2026-05-04 23:54 | 40.63877 | -73.78326 | 22 ft | 2 kts | 236° |
| 2026-05-04 23:55 | 40.63887 | -73.78313 | 22 ft | 2 kts | 206° |
| 2026-05-04 23:55 | 40.63902 | -73.78308 | 22 ft | 2 kts | 176° |
| 2026-05-04 23:55 | 40.63918 | -73.78314 | 22 ft | 0 kts | 152° |
| 2026-05-04 23:58 | 40.63914 | -73.78312 | 22 ft | 1 kts | 152° |
| 2026-05-04 23:58 | 40.63878 | -73.78297 | 22 ft | 9 kts | 169° |
| 2026-05-04 23:58 | 40.63792 | -73.78281 | 22 ft | 14 kts | 173° |
| 2026-05-04 23:58 | 40.63694 | -73.78266 | 22 ft | 13 kts | 173° |
| 2026-05-04 23:59 | 40.63610 | -73.78254 | 21 ft | 13 kts | 175° |
| 2026-05-04 23:59 | 40.63581 | -73.78259 | 20 ft | 2 kts | 194° |
| 2026-05-04 23:59 | 40.63543 | -73.78280 | 20 ft | 8 kts | 207° |
| 2026-05-04 23:59 | 40.63482 | -73.78321 | 19 ft | 10 kts | 189° |
| 2026-05-05 00:00 | 40.63420 | -73.78264 | 19 ft | 12 kts | 121° |
| 2026-05-05 00:00 | 40.63405 | -73.78229 | 19 ft | 13 kts | 120° |
| 2026-05-05 00:00 | 40.63331 | -73.78024 | 19 ft | 16 kts | 98° |
| 2026-05-05 00:00 | 40.63345 | -73.77884 | 19 ft | 15 kts | 65° |
| 2026-05-05 00:01 | 40.63421 | -73.77776 | 19 ft | 17 kts | 33° |
| 2026-05-05 00:01 | 40.63507 | -73.77704 | 21 ft | 14 kts | 33° |
| 2026-05-05 00:01 | 40.63602 | -73.77635 | 22 ft | 16 kts | 30° |
| 2026-05-05 00:01 | 40.63710 | -73.77552 | 22 ft | 19 kts | 31° |
| 2026-05-05 00:02 | 40.63828 | -73.77457 | 22 ft | 21 kts | 31° |
| 2026-05-05 00:02 | 40.63961 | -73.77354 | 22 ft | 23 kts | 30° |
| 2026-05-05 00:02 | 40.64080 | -73.77260 | 22 ft | 15 kts | 32° |
| 2026-05-05 00:02 | 40.64178 | -73.77183 | 22 ft | 17 kts | 30° |
| 2026-05-05 00:03 | 40.64292 | -73.77096 | 22 ft | 20 kts | 30° |
| 2026-05-05 00:03 | 40.64368 | -73.77039 | 22 ft | 1 kts | 28° |
| 2026-05-05 00:03 | 40.64389 | -73.77024 | 22 ft | 5 kts | 29° |
| 2026-05-05 00:03 | 40.64449 | -73.76993 | 22 ft | 12 kts | 10° |
| 2026-05-05 00:04 | 40.64549 | -73.76959 | 22 ft | 16 kts | 30° |
| 2026-05-05 00:04 | 40.64655 | -73.76871 | 22 ft | 19 kts | 32° |
| 2026-05-05 00:04 | 40.64770 | -73.76782 | 22 ft | 16 kts | 28° |
| 2026-05-05 00:04 | 40.64877 | -73.76701 | 22 ft | 18 kts | 31° |
| 2026-05-05 00:05 | 40.64995 | -73.76606 | 22 ft | 21 kts | 31° |
| 2026-05-05 00:05 | 40.65087 | -73.76527 | 22 ft | 6 kts | 52° |
| 2026-05-05 00:05 | 40.65093 | -73.76477 | 22 ft | 0 kts | 99° |
| 2026-05-05 00:05 | 40.65093 | -73.76475 | 22 ft | 2 kts | 100° |
| 2026-05-05 00:06 | 40.65065 | -73.76407 | 22 ft | 13 kts | 120° |
| 2026-05-05 00:06 | 40.65000 | -73.76374 | 22 ft | 11 kts | 207° |
| 2026-05-05 00:06 | 40.64882 | -73.76463 | 22 ft | 34 kts | 211° |
| 2026-05-05 00:06 | 40.64543 | -73.76730 | 22 ft | 81 kts | 210° |
| 2026-05-05 00:07 | 40.63926 | -73.77207 | 23 ft | 122 kts | 209° |
| 2026-05-05 00:07 | 40.63116 | -73.77792 | 143 ft | 138 kts | 205° |
| 2026-05-05 00:07 | 40.62297 | -73.78381 | 367 ft | 143 kts | 207° |
| 2026-05-05 00:07 | 40.61461 | -73.79151 | 723 ft | 148 kts | 218° |
| 2026-05-05 00:08 | 40.60628 | -73.79825 | 1284 ft | 139 kts | 209° |
| 2026-05-05 00:08 | 40.59757 | -73.80562 | 1440 ft | 158 kts | 214° |
| 2026-05-05 00:08 | 40.58771 | -73.81359 | 1614 ft | 176 kts | 206° |
| 2026-05-05 00:08 | 40.57503 | -73.81554 | 1778 ft | 199 kts | 172° |
| 2026-05-05 00:09 | 40.56233 | -73.80593 | 1909 ft | 225 kts | 143° |
| 2026-05-05 00:09 | 40.55063 | -73.79147 | 2252 ft | 232 kts | 141° |
| 2026-05-05 00:09 | 40.53907 | -73.77685 | 2646 ft | 236 kts | 141° |
| 2026-05-05 00:09 | 40.52676 | -73.76135 | 2878 ft | 252 kts | 140° |
| 2026-05-05 00:10 | 40.51402 | -73.74530 | 3232 ft | 261 kts | 140° |
| 2026-05-05 00:10 | 40.50082 | -73.72865 | 3650 ft | 267 kts | 140° |
| 2026-05-05 00:10 | 40.48728 | -73.71157 | 4104 ft | 271 kts | 140° |
| 2026-05-05 00:10 | 40.47351 | -73.69421 | 4586 ft | 274 kts | 140° |
| 2026-05-05 00:11 | 40.45979 | -73.67691 | 5015 ft | 278 kts | 139° |
| 2026-05-05 00:11 | 40.44578 | -73.65926 | 5443 ft | 282 kts | 139° |
| 2026-05-05 00:11 | 40.43161 | -73.64141 | 5903 ft | 284 kts | 139° |
| 2026-05-05 00:11 | 40.41723 | -73.62331 | 6323 ft | 288 kts | 138° |
| 2026-05-05 00:12 | 40.40271 | -73.60506 | 6766 ft | 290 kts | 138° |
| 2026-05-05 00:12 | 40.38808 | -73.58665 | 7178 ft | 293 kts | 138° |
| 2026-05-05 00:12 | 40.37332 | -73.56811 | 7592 ft | 295 kts | 138° |
| 2026-05-05 00:12 | 40.35846 | -73.54945 | 8016 ft | 297 kts | 138° |
| 2026-05-05 00:13 | 40.34364 | -73.53085 | 8448 ft | 299 kts | 138° |
| 2026-05-05 00:13 | 40.32852 | -73.51189 | 8817 ft | 302 kts | 138° |
| 2026-05-05 00:13 | 40.31333 | -73.49285 | 9202 ft | 304 kts | 138° |
| 2026-05-05 00:13 | 40.29817 | -73.47386 | 9615 ft | 305 kts | 138° |
| 2026-05-05 00:14 | 40.28278 | -73.45460 | 9962 ft | 309 kts | 138° |
| 2026-05-05 00:14 | 40.26711 | -73.43501 | 10180 ft | 317 kts | 138° |
| 2026-05-05 00:14 | 40.25063 | -73.41444 | 10196 ft | 331 kts | 137° |
| 2026-05-05 00:14 | 40.23340 | -73.39378 | 10202 ft | 344 kts | 142° |
| 2026-05-05 00:15 | 40.21390 | -73.37486 | 10226 ft | 355 kts | 146° |
| 2026-05-05 00:15 | 40.19361 | -73.35585 | 10238 ft | 365 kts | 146° |
| 2026-05-05 00:15 | 40.17209 | -73.33695 | 10258 ft | 373 kts | 153° |
| 2026-05-05 00:15 | 40.14839 | -73.32278 | 10266 ft | 378 kts | 164° |
| 2026-05-05 00:16 | 40.12286 | -73.31438 | 10281 ft | 382 kts | 174° |
| 2026-05-05 00:16 | 40.09646 | -73.31228 | 10405 ft | 380 kts | 185° |
| 2026-05-05 00:16 | 40.07022 | -73.31658 | 10635 ft | 376 kts | 196° |
| 2026-05-05 00:16 | 40.04576 | -73.32664 | 10854 ft | 371 kts | 206° |
| 2026-05-05 00:17 | 40.02287 | -73.34229 | 11025 ft | 369 kts | 217° |
| 2026-05-05 00:17 | 40.00253 | -73.36256 | 11198 ft | 366 kts | 224° |
| 2026-05-05 00:17 | 39.98349 | -73.38397 | 11432 ft | 366 kts | 225° |
| 2026-05-05 00:17 | 39.96426 | -73.40563 | 11638 ft | 367 kts | 225° |
| 2026-05-05 00:18 | 39.94467 | -73.42763 | 11804 ft | 368 kts | 225° |
| 2026-05-05 00:18 | 39.92527 | -73.44935 | 11961 ft | 370 kts | 225° |
| 2026-05-05 00:18 | 39.90575 | -73.47117 | 12142 ft | 371 kts | 225° |
| 2026-05-05 00:18 | 39.88618 | -73.49299 | 12332 ft | 371 kts | 225° |
| 2026-05-05 00:19 | 39.86659 | -73.51482 | 12512 ft | 371 kts | 225° |
| 2026-05-05 00:19 | 39.84717 | -73.53643 | 12667 ft | 372 kts | 225° |
| 2026-05-05 00:19 | 39.82744 | -73.55842 | 12830 ft | 373 kts | 225° |
| 2026-05-05 00:19 | 39.80776 | -73.58034 | 13004 ft | 374 kts | 225° |
| 2026-05-05 00:20 | 39.78795 | -73.60239 | 13170 ft | 374 kts | 225° |
| 2026-05-05 00:20 | 39.76817 | -73.62440 | 13329 ft | 374 kts | 225° |
| 2026-05-05 00:20 | 39.74843 | -73.64633 | 13469 ft | 375 kts | 225° |
| 2026-05-05 00:20 | 39.72846 | -73.66851 | 13616 ft | 376 kts | 224° |
| 2026-05-05 00:21 | 39.70844 | -73.69073 | 13785 ft | 376 kts | 225° |
| 2026-05-05 00:21 | 39.68858 | -73.71274 | 13941 ft | 377 kts | 225° |
| 2026-05-05 00:21 | 39.66856 | -73.73492 | 14076 ft | 378 kts | 225° |
| 2026-05-05 00:21 | 39.64847 | -73.75716 | 14191 ft | 380 kts | 224° |
| 2026-05-05 00:22 | 39.62835 | -73.77941 | 14339 ft | 381 kts | 224° |
| 2026-05-05 00:22 | 39.60825 | -73.80162 | 14495 ft | 381 kts | 224° |
| 2026-05-05 00:22 | 39.58806 | -73.82392 | 14619 ft | 382 kts | 224° |
| 2026-05-05 00:22 | 39.56781 | -73.84627 | 14722 ft | 384 kts | 224° |
| 2026-05-05 00:23 | 39.54767 | -73.86846 | 14857 ft | 384 kts | 224° |
| 2026-05-05 00:23 | 39.52721 | -73.89101 | 14973 ft | 386 kts | 224° |
| 2026-05-05 00:23 | 39.50670 | -73.91359 | 15089 ft | 387 kts | 224° |
| 2026-05-05 00:23 | 39.48628 | -73.93604 | 15224 ft | 387 kts | 224° |
| 2026-05-05 00:24 | 39.46577 | -73.95858 | 15347 ft | 388 kts | 224° |
| 2026-05-05 00:24 | 39.44519 | -73.98118 | 15454 ft | 389 kts | 224° |
| 2026-05-05 00:24 | 39.42455 | -74.00382 | 15558 ft | 390 kts | 224° |
| 2026-05-05 00:24 | 39.40373 | -74.02664 | 15675 ft | 390 kts | 224° |
| 2026-05-05 00:25 | 39.38313 | -74.04918 | 15796 ft | 391 kts | 224° |
| 2026-05-05 00:25 | 39.36248 | -74.07175 | 15910 ft | 391 kts | 224° |
| 2026-05-05 00:25 | 39.34174 | -74.09441 | 16028 ft | 392 kts | 224° |
| 2026-05-05 00:25 | 39.32077 | -74.11729 | 16142 ft | 392 kts | 224° |
| 2026-05-05 00:26 | 39.29988 | -74.14008 | 16234 ft | 394 kts | 224° |
| 2026-05-05 00:26 | 39.27898 | -74.16285 | 16325 ft | 395 kts | 224° |
| 2026-05-05 00:26 | 39.25803 | -74.18565 | 16439 ft | 395 kts | 224° |
| 2026-05-05 00:26 | 39.23716 | -74.20836 | 16565 ft | 395 kts | 224° |
| 2026-05-05 00:27 | 39.21619 | -74.23116 | 16654 ft | 396 kts | 224° |
| 2026-05-05 00:27 | 39.19503 | -74.25415 | 16711 ft | 397 kts | 224° |
| 2026-05-05 00:27 | 39.17385 | -74.27714 | 16770 ft | 399 kts | 224° |
| 2026-05-05 00:27 | 39.15264 | -74.30012 | 16877 ft | 399 kts | 224° |
| 2026-05-05 00:28 | 39.13130 | -74.32325 | 16979 ft | 400 kts | 224° |
| 2026-05-05 00:28 | 39.11004 | -74.34627 | 17072 ft | 400 kts | 224° |
| 2026-05-05 00:28 | 39.08887 | -74.36917 | 17158 ft | 401 kts | 224° |
| 2026-05-05 00:28 | 39.06758 | -74.39218 | 17248 ft | 401 kts | 224° |
| 2026-05-05 00:29 | 39.04612 | -74.41537 | 17339 ft | 402 kts | 224° |
| 2026-05-05 00:29 | 39.02468 | -74.43849 | 17452 ft | 401 kts | 224° |
| 2026-05-05 00:29 | 39.00336 | -74.46149 | 17548 ft | 401 kts | 224° |
| 2026-05-05 00:29 | 38.98201 | -74.48448 | 17616 ft | 402 kts | 224° |
| 2026-05-05 00:30 | 38.96051 | -74.50763 | 17689 ft | 403 kts | 224° |
| 2026-05-05 00:30 | 38.93904 | -74.53072 | 17784 ft | 403 kts | 224° |
| 2026-05-05 00:30 | 38.91810 | -74.55460 | 17831 ft | 403 kts | 226° |
| 2026-05-05 00:30 | 38.89742 | -74.57906 | 17871 ft | 404 kts | 226° |
| 2026-05-05 00:31 | 38.87678 | -74.60343 | 17941 ft | 405 kts | 226° |
| 2026-05-05 00:31 | 38.85614 | -74.62774 | 18006 ft | 405 kts | 226° |
| 2026-05-05 00:31 | 38.83539 | -74.65209 | 18077 ft | 405 kts | 225° |
| 2026-05-05 00:31 | 38.81460 | -74.67645 | 18180 ft | 405 kts | 225° |
| 2026-05-05 00:32 | 38.79388 | -74.70067 | 18286 ft | 405 kts | 225° |
| 2026-05-05 00:32 | 38.77284 | -74.72525 | 18334 ft | 406 kts | 225° |
| 2026-05-05 00:32 | 38.75192 | -74.74966 | 18382 ft | 407 kts | 225° |
| 2026-05-05 00:32 | 38.73049 | -74.77327 | 18450 ft | 408 kts | 222° |
| 2026-05-05 00:33 | 38.70843 | -74.79605 | 18529 ft | 409 kts | 221° |
| 2026-05-05 00:33 | 38.68647 | -74.81870 | 18579 ft | 410 kts | 221° |
| 2026-05-05 00:33 | 38.66402 | -74.84192 | 18634 ft | 410 kts | 222° |
| 2026-05-05 00:33 | 38.64196 | -74.86475 | 18707 ft | 411 kts | 222° |
| 2026-05-05 00:34 | 38.61988 | -74.88764 | 18799 ft | 410 kts | 221° |
| 2026-05-05 00:34 | 38.59775 | -74.91057 | 18883 ft | 410 kts | 222° |
| 2026-05-05 00:34 | 38.57545 | -74.93368 | 18952 ft | 410 kts | 222° |
| 2026-05-05 00:34 | 38.55329 | -74.95664 | 19001 ft | 411 kts | 222° |
| 2026-05-05 00:35 | 38.53103 | -74.97970 | 19056 ft | 412 kts | 221° |
| 2026-05-05 00:35 | 38.50938 | -75.00303 | 19129 ft | 411 kts | 224° |
| 2026-05-05 00:35 | 38.48797 | -75.02710 | 19191 ft | 411 kts | 224° |
| 2026-05-05 00:35 | 38.46660 | -75.05111 | 19241 ft | 411 kts | 224° |
| 2026-05-05 00:36 | 38.44424 | -75.07397 | 19242 ft | 414 kts | 219° |
| 2026-05-05 00:36 | 38.42096 | -75.09582 | 19275 ft | 414 kts | 219° |
| 2026-05-05 00:36 | 38.39779 | -75.11754 | 19339 ft | 414 kts | 219° |
| 2026-05-05 00:36 | 38.37458 | -75.13937 | 19391 ft | 415 kts | 219° |
| 2026-05-05 00:37 | 38.35136 | -75.16127 | 19425 ft | 416 kts | 219° |
| 2026-05-05 00:37 | 38.32791 | -75.18341 | 19495 ft | 416 kts | 219° |
| 2026-05-05 00:37 | 38.30480 | -75.20524 | 19566 ft | 415 kts | 219° |
| 2026-05-05 00:37 | 38.28172 | -75.22704 | 19622 ft | 416 kts | 219° |
| 2026-05-05 00:38 | 38.25859 | -75.24890 | 19670 ft | 416 kts | 219° |
| 2026-05-05 00:38 | 38.23512 | -75.27107 | 19735 ft | 416 kts | 219° |
| 2026-05-05 00:38 | 38.21191 | -75.29298 | 19773 ft | 417 kts | 219° |
| 2026-05-05 00:38 | 38.18857 | -75.31500 | 19810 ft | 417 kts | 219° |
| 2026-05-05 00:39 | 38.16539 | -75.33687 | 19854 ft | 418 kts | 219° |
| 2026-05-05 00:39 | 38.14215 | -75.35877 | 19890 ft | 419 kts | 219° |
| 2026-05-05 00:39 | 38.11853 | -75.38100 | 19945 ft | 419 kts | 219° |
| 2026-05-05 00:39 | 38.09535 | -75.40282 | 20005 ft | 419 kts | 219° |
| 2026-05-05 00:40 | 38.07176 | -75.42499 | 20044 ft | 419 kts | 219° |
| 2026-05-05 00:40 | 38.04836 | -75.44697 | 20073 ft | 420 kts | 219° |
| 2026-05-05 00:40 | 38.02449 | -75.46814 | 20137 ft | 421 kts | 217° |
| 2026-05-05 00:40 | 38.00021 | -75.48918 | 20193 ft | 420 kts | 217° |
| 2026-05-05 00:41 | 37.97634 | -75.50987 | 20248 ft | 421 kts | 217° |
| 2026-05-05 00:41 | 37.95225 | -75.53078 | 20297 ft | 421 kts | 217° |
| 2026-05-05 00:41 | 37.92799 | -75.55183 | 20335 ft | 421 kts | 217° |
| 2026-05-05 00:41 | 37.90393 | -75.57273 | 20381 ft | 421 kts | 217° |
| 2026-05-05 00:42 | 37.87955 | -75.59390 | 20424 ft | 421 kts | 217° |
| 2026-05-05 00:42 | 37.85540 | -75.61485 | 20459 ft | 421 kts | 217° |
| 2026-05-05 00:42 | 37.83135 | -75.63551 | 20481 ft | 422 kts | 216° |
| 2026-05-05 00:42 | 37.80590 | -75.65482 | 20510 ft | 423 kts | 213° |
| 2026-05-05 00:43 | 37.78058 | -75.67357 | 20552 ft | 423 kts | 213° |
| 2026-05-05 00:43 | 37.75515 | -75.69247 | 20576 ft | 424 kts | 213° |
| 2026-05-05 00:43 | 37.72982 | -75.71134 | 20616 ft | 424 kts | 213° |
| 2026-05-05 00:43 | 37.70466 | -75.73014 | 20649 ft | 425 kts | 213° |
| 2026-05-05 00:44 | 37.67900 | -75.74933 | 20689 ft | 425 kts | 213° |
| 2026-05-05 00:44 | 37.65366 | -75.76828 | 20733 ft | 425 kts | 213° |
| 2026-05-05 00:44 | 37.62843 | -75.78715 | 20789 ft | 424 kts | 214° |
| 2026-05-05 00:44 | 37.60286 | -75.80627 | 20830 ft | 425 kts | 214° |
| 2026-05-05 00:45 | 37.57745 | -75.82528 | 20857 ft | 425 kts | 214° |
| 2026-05-05 00:45 | 37.55215 | -75.84418 | 20921 ft | 425 kts | 214° |
| 2026-05-05 00:45 | 37.52739 | -75.86448 | 20946 ft | 422 kts | 220° |
| 2026-05-05 00:45 | 37.50457 | -75.88715 | 20961 ft | 422 kts | 222° |
| 2026-05-05 00:46 | 37.48156 | -75.91046 | 20972 ft | 423 kts | 222° |
| 2026-05-05 00:46 | 37.45881 | -75.93349 | 20986 ft | 423 kts | 222° |
| 2026-05-05 00:46 | 37.43570 | -75.95685 | 21032 ft | 423 kts | 222° |
| 2026-05-05 00:46 | 37.41272 | -75.98004 | 21082 ft | 423 kts | 222° |
| 2026-05-05 00:47 | 37.38978 | -76.00317 | 21116 ft | 423 kts | 222° |
| 2026-05-05 00:47 | 37.36682 | -76.02631 | 21119 ft | 424 kts | 222° |
| 2026-05-05 00:47 | 37.34380 | -76.04947 | 21157 ft | 424 kts | 222° |
| 2026-05-05 00:47 | 37.32091 | -76.07249 | 21203 ft | 424 kts | 222° |
| 2026-05-05 00:48 | 37.29792 | -76.09558 | 21242 ft | 424 kts | 222° |
| 2026-05-05 00:48 | 37.27482 | -76.11876 | 21244 ft | 424 kts | 222° |
| 2026-05-05 00:48 | 37.25187 | -76.14177 | 21263 ft | 424 kts | 222° |
| 2026-05-05 00:48 | 37.22891 | -76.16478 | 21284 ft | 423 kts | 222° |
| 2026-05-05 00:49 | 37.20601 | -76.18771 | 21336 ft | 423 kts | 223° |
| 2026-05-05 00:49 | 37.18276 | -76.21097 | 21350 ft | 424 kts | 222° |
| 2026-05-05 00:49 | 37.15982 | -76.23389 | 21368 ft | 424 kts | 222° |
| 2026-05-05 00:49 | 37.13677 | -76.25691 | 21407 ft | 424 kts | 222° |